sensor_id;sensor_type;location;lat;lon;timestamp;pressure;altitude;pressure_sealevel;temperature;humidity
39487;BME280;25173;50.430;18.926;2023-03-13T00:04:14;97723.69;;;8.34;48.46
39487;BME280;25173;50.430;18.926;2023-03-13T00:07:15;97715.28;;;8.35;48.48
39487;BME280;25173;50.430;18.926;2023-03-13T00:10:15;97728.56;;;8.37;48.61
39487;BME280;25173;50.430;18.926;2023-03-13T00:13:16;97732.63;;;8.39;48.61
39487;BME280;25173;50.430;18.926;2023-03-13T00:16:17;97725.88;;;8.37;48.95
39487;BME280;25173;50.430;18.926;2023-03-13T00:19:17;97717.44;;;8.43;48.84
39487;BME280;25173;50.430;18.926;2023-03-13T00:22:18;97717.72;;;8.47;49.05
39487;BME280;25173;50.430;18.926;2023-03-13T00:25:18;97706.06;;;8.51;49.06
39487;BME280;25173;50.430;18.926;2023-03-13T00:28:19;97697.63;;;8.53;49.13
39487;BME280;25173;50.430;18.926;2023-03-13T00:31:27;97688.13;;;8.55;49.38
39487;BME280;25173;50.430;18.926;2023-03-13T00:34:28;97682.97;;;8.54;49.42
39487;BME280;25173;50.430;18.926;2023-03-13T00:37:30;97668.31;;;8.55;49.66
39487;BME280;25173;50.430;18.926;2023-03-13T00:40:31;97667.75;;;8.53;50.17
39487;BME280;25173;50.430;18.926;2023-03-13T00:43:32;97675.94;;;8.58;50.14
39487;BME280;25173;50.430;18.926;2023-03-13T00:46:34;97671.84;;;8.55;50.37
39487;BME280;25173;50.430;18.926;2023-03-13T00:49:35;97666.16;;;8.52;50.73
39487;BME280;25173;50.430;18.926;2023-03-13T00:52:35;97662.06;;;8.54;50.95
39487;BME280;25173;50.430;18.926;2023-03-13T00:55:36;97670.50;;;8.58;50.99
39487;BME280;25173;50.430;18.926;2023-03-13T00:58:38;97664.22;;;8.63;51.21
39487;BME280;25173;50.430;18.926;2023-03-13T01:01:39;97666.69;;;8.59;51.46
39487;BME280;25173;50.430;18.926;2023-03-13T01:04:40;97668.84;;;8.62;51.65
39487;BME280;25173;50.430;18.926;2023-03-13T01:07:40;97671.56;;;8.62;51.80
39487;BME280;25173;50.430;18.926;2023-03-13T01:10:41;97683.50;;;8.66;52.03
39487;BME280;25173;50.430;18.926;2023-03-13T01:13:42;97692.19;;;8.68;52.16
39487;BME280;25173;50.430;18.926;2023-03-13T01:16:43;97690.53;;;8.67;52.53
39487;BME280;25173;50.430;18.926;2023-03-13T01:19:43;97688.66;;;8.68;52.62
39487;BME280;25173;50.430;18.926;2023-03-13T01:22:44;97692.47;;;8.67;52.91
39487;BME280;25173;50.430;18.926;2023-03-13T01:25:45;97694.91;;;8.68;52.98
39487;BME280;25173;50.430;18.926;2023-03-13T01:28:46;97682.41;;;8.67;52.96
39487;BME280;25173;50.430;18.926;2023-03-13T01:31:46;97687.84;;;8.67;53.18
39487;BME280;25173;50.430;18.926;2023-03-13T01:34:47;97686.75;;;8.68;53.21
39487;BME280;25173;50.430;18.926;2023-03-13T01:37:47;97678.91;;;8.67;53.41
39487;BME280;25173;50.430;18.926;2023-03-13T01:40:48;97682.41;;;8.67;53.46
39487;BME280;25173;50.430;18.926;2023-03-13T01:43:49;97668.56;;;8.69;53.66
39487;BME280;25173;50.430;18.926;2023-03-13T01:46:51;97686.22;;;8.71;53.69
39487;BME280;25173;50.430;18.926;2023-03-13T01:49:54;97685.41;;;8.71;53.94
39487;BME280;25173;50.430;18.926;2023-03-13T01:53:15;97678.06;;;8.71;54.05
39487;BME280;25173;50.430;18.926;2023-03-13T01:56:20;97680.25;;;8.74;54.20
39487;BME280;25173;50.430;18.926;2023-03-13T01:59:26;97692.72;;;8.75;54.29
39487;BME280;25173;50.430;18.926;2023-03-13T02:02:28;97681.03;;;8.75;54.24
39487;BME280;25173;50.430;18.926;2023-03-13T02:05:30;97685.13;;;8.77;54.35
39487;BME280;25173;50.430;18.926;2023-03-13T02:08:35;97675.88;;;8.78;54.39
39487;BME280;25173;50.430;18.926;2023-03-13T02:11:49;97691.66;;;8.81;54.76
39487;BME280;25173;50.430;18.926;2023-03-13T02:14:52;97684.59;;;8.80;54.52
39487;BME280;25173;50.430;18.926;2023-03-13T02:17:54;97691.88;;;8.85;54.65
39487;BME280;25173;50.430;18.926;2023-03-13T02:21:03;97699.22;;;8.84;54.89
39487;BME280;25173;50.430;18.926;2023-03-13T02:24:24;97709.00;;;8.85;55.21
39487;BME280;25173;50.430;18.926;2023-03-13T02:27:28;97704.13;;;8.87;54.89
39487;BME280;25173;50.430;18.926;2023-03-13T02:30:29;97712.78;;;8.89;54.96
39487;BME280;25173;50.430;18.926;2023-03-13T02:33:39;97720.94;;;8.89;55.44
39487;BME280;25173;50.430;18.926;2023-03-13T02:36:41;97711.69;;;8.90;55.31
39487;BME280;25173;50.430;18.926;2023-03-13T02:39:45;97713.59;;;8.95;55.28
39487;BME280;25173;50.430;18.926;2023-03-13T02:42:48;97717.94;;;8.96;55.29
39487;BME280;25173;50.430;18.926;2023-03-13T02:46:13;97710.63;;;8.97;55.83
39487;BME280;25173;50.430;18.926;2023-03-13T02:49:27;97712.78;;;8.94;55.95
39487;BME280;25173;50.430;18.926;2023-03-13T02:52:32;97722.03;;;8.93;56.21
39487;BME280;25173;50.430;18.926;2023-03-13T02:55:40;97720.38;;;8.92;56.34
39487;BME280;25173;50.430;18.926;2023-03-13T02:58:43;97722.56;;;8.90;56.42
39487;BME280;25173;50.430;18.926;2023-03-13T03:01:45;97717.69;;;8.92;56.58
39487;BME280;25173;50.430;18.926;2023-03-13T03:04:46;97727.69;;;8.97;56.61
39487;BME280;25173;50.430;18.926;2023-03-13T03:07:48;97731.78;;;9.00;56.69
39487;BME280;25173;50.430;18.926;2023-03-13T03:10:48;97716.56;;;8.99;57.04
39487;BME280;25173;50.430;18.926;2023-03-13T03:13:49;97723.09;;;9.03;57.12
39487;BME280;25173;50.430;18.926;2023-03-13T03:16:51;97721.44;;;9.07;56.98
39487;BME280;25173;50.430;18.926;2023-03-13T03:19:51;97719.28;;;9.09;57.13
39487;BME280;25173;50.430;18.926;2023-03-13T03:22:53;97730.97;;;9.09;57.24
39487;BME280;25173;50.430;18.926;2023-03-13T03:25:54;97725.53;;;9.09;57.37
39487;BME280;25173;50.430;18.926;2023-03-13T03:28:55;97735.31;;;9.10;57.42
39487;BME280;25173;50.430;18.926;2023-03-13T03:31:56;97731.22;;;9.13;57.50
39487;BME280;25173;50.430;18.926;2023-03-13T03:34:57;97718.72;;;9.12;57.74
39487;BME280;25173;50.430;18.926;2023-03-13T03:37:58;97723.34;;;9.16;57.74
39487;BME280;25173;50.430;18.926;2023-03-13T03:40:59;97729.56;;;9.22;57.70
39487;BME280;25173;50.430;18.926;2023-03-13T03:44:00;97724.94;;;9.22;57.79
39487;BME280;25173;50.430;18.926;2023-03-13T03:47:12;97721.41;;;9.22;58.05
39487;BME280;25173;50.430;18.926;2023-03-13T03:50:16;97718.69;;;9.22;58.26
39487;BME280;25173;50.430;18.926;2023-03-13T03:53:27;97720.88;;;9.20;58.63
39487;BME280;25173;50.430;18.926;2023-03-13T03:56:28;97713.81;;;9.19;58.76
39487;BME280;25173;50.430;18.926;2023-03-13T03:59:30;97709.19;;;9.19;58.65
39487;BME280;25173;50.430;18.926;2023-03-13T04:02:36;97718.72;;;9.17;59.29
39487;BME280;25173;50.430;18.926;2023-03-13T04:05:37;97708.66;;;9.17;59.31
39487;BME280;25173;50.430;18.926;2023-03-13T04:08:37;97717.59;;;9.23;59.25
39487;BME280;25173;50.430;18.926;2023-03-13T04:11:38;97721.97;;;9.24;59.23
39487;BME280;25173;50.430;18.926;2023-03-13T04:14:40;97719.50;;;9.22;59.09
39487;BME280;25173;50.430;18.926;2023-03-13T04:17:44;97722.47;;;9.31;59.34
39487;BME280;25173;50.430;18.926;2023-03-13T04:20:45;97720.56;;;9.37;59.23
39487;BME280;25173;50.430;18.926;2023-03-13T04:23:47;97724.59;;;9.44;59.09
39487;BME280;25173;50.430;18.926;2023-03-13T04:26:48;97725.09;;;9.56;58.66
39487;BME280;25173;50.430;18.926;2023-03-13T04:29:49;97727.78;;;9.66;58.67
39487;BME280;25173;50.430;18.926;2023-03-13T04:33:08;97724.50;;;9.69;58.73
39487;BME280;25173;50.430;18.926;2023-03-13T04:36:23;97723.13;;;9.72;58.70
39487;BME280;25173;50.430;18.926;2023-03-13T04:39:43;97738.38;;;9.68;59.00
39487;BME280;25173;50.430;18.926;2023-03-13T04:43:06;97729.69;;;9.66;59.27
39487;BME280;25173;50.430;18.926;2023-03-13T04:46:26;97725.59;;;9.68;59.40
39487;BME280;25173;50.430;18.926;2023-03-13T04:49:36;97725.03;;;9.71;59.55
39487;BME280;25173;50.430;18.926;2023-03-13T04:52:59;97721.75;;;9.74;59.45
39487;BME280;25173;50.430;18.926;2023-03-13T04:56:26;97711.38;;;9.82;59.49
39487;BME280;25173;50.430;18.926;2023-03-13T04:59:55;97707.31;;;9.79;59.34
39487;BME280;25173;50.430;18.926;2023-03-13T05:03:17;97711.38;;;9.82;59.37
39487;BME280;25173;50.430;18.926;2023-03-13T05:06:31;97704.28;;;9.91;59.49
39487;BME280;25173;50.430;18.926;2023-03-13T05:09:44;97690.59;;;10.01;59.37
39487;BME280;25173;50.430;18.926;2023-03-13T05:12:57;97685.94;;;10.06;59.33
39487;BME280;25173;50.430;18.926;2023-03-13T05:16:20;97689.19;;;10.08;59.30
39487;BME280;25173;50.430;18.926;2023-03-13T05:19:48;97689.69;;;10.16;59.17
39487;BME280;25173;50.430;18.926;2023-03-13T05:23:14;97692.91;;;10.23;59.05
39487;BME280;25173;50.430;18.926;2023-03-13T05:26:34;97684.47;;;10.24;58.90
39487;BME280;25173;50.430;18.926;2023-03-13T05:29:53;97686.16;;;10.20;58.90
39487;BME280;25173;50.430;18.926;2023-03-13T05:33:26;97692.69;;;10.19;59.01
39487;BME280;25173;50.430;18.926;2023-03-13T05:36:45;97691.31;;;10.17;59.00
39487;BME280;25173;50.430;18.926;2023-03-13T05:40:09;97678.56;;;10.12;59.10
39487;BME280;25173;50.430;18.926;2023-03-13T05:43:30;97674.25;;;10.06;59.21
39487;BME280;25173;50.430;18.926;2023-03-13T05:46:37;97667.19;;;10.05;59.20
39487;BME280;25173;50.430;18.926;2023-03-13T05:49:58;97665.50;;;10.09;59.17
39487;BME280;25173;50.430;18.926;2023-03-13T05:53:21;97660.06;;;10.09;59.21
39487;BME280;25173;50.430;18.926;2023-03-13T05:56:36;97657.94;;;10.06;59.21
39487;BME280;25173;50.430;18.926;2023-03-13T05:59:57;97675.31;;;10.10;59.11
39487;BME280;25173;50.430;18.926;2023-03-13T06:03:13;97668.72;;;10.16;58.94
39487;BME280;25173;50.430;18.926;2023-03-13T06:06:16;97667.91;;;10.16;58.97
39487;BME280;25173;50.430;18.926;2023-03-13T06:09:20;97671.75;;;10.09;59.14
39487;BME280;25173;50.430;18.926;2023-03-13T06:12:22;97663.09;;;10.02;59.14
39487;BME280;25173;50.430;18.926;2023-03-13T06:15:22;97659.06;;;10.00;59.25
39487;BME280;25173;50.430;18.926;2023-03-13T06:18:33;97654.41;;;10.00;59.27
39487;BME280;25173;50.430;18.926;2023-03-13T06:21:33;97661.75;;;10.05;59.16
39487;BME280;25173;50.430;18.926;2023-03-13T06:24:35;97652.50;;;10.06;59.08
39487;BME280;25173;50.430;18.926;2023-03-13T06:27:35;97653.81;;;10.08;59.03
39487;BME280;25173;50.430;18.926;2023-03-13T06:30:36;97655.94;;;10.17;59.08
39487;BME280;25173;50.430;18.926;2023-03-13T06:33:37;97658.66;;;10.17;59.02
39487;BME280;25173;50.430;18.926;2023-03-13T06:36:37;97663.84;;;10.18;59.17
39487;BME280;25173;50.430;18.926;2023-03-13T06:39:38;97657.00;;;10.26;59.21
39487;BME280;25173;50.430;18.926;2023-03-13T06:42:39;97670.25;;;10.37;59.19
39487;BME280;25173;50.430;18.926;2023-03-13T06:45:39;97653.81;;;10.47;58.91
39487;BME280;25173;50.430;18.926;2023-03-13T06:48:40;97654.09;;;10.46;58.89
39487;BME280;25173;50.430;18.926;2023-03-13T06:51:40;97656.59;;;10.42;58.97
39487;BME280;25173;50.430;18.926;2023-03-13T06:54:44;97649.47;;;10.46;58.97
39487;BME280;25173;50.430;18.926;2023-03-13T06:57:49;97652.91;;;10.57;59.03
39487;BME280;25173;50.430;18.926;2023-03-13T07:00:50;97656.41;;;10.63;58.79
39487;BME280;25173;50.430;18.926;2023-03-13T07:03:50;97649.78;;;10.74;58.88
39487;BME280;25173;50.430;18.926;2023-03-13T07:06:51;97642.28;;;10.84;58.75
39487;BME280;25173;50.430;18.926;2023-03-13T07:09:51;97645.66;;;11.00;58.81
39487;BME280;25173;50.430;18.926;2023-03-13T07:12:52;97661.66;;;11.07;58.51
39487;BME280;25173;50.430;18.926;2023-03-13T07:15:53;97636.78;;;11.13;58.50
39487;BME280;25173;50.430;18.926;2023-03-13T07:18:54;97636.69;;;11.23;58.36
39487;BME280;25173;50.430;18.926;2023-03-13T07:21:54;97637.72;;;11.27;58.38
39487;BME280;25173;50.430;18.926;2023-03-13T07:24:56;97636.41;;;11.44;58.28
39487;BME280;25173;50.430;18.926;2023-03-13T07:27:56;97629.75;;;11.55;58.13
39487;BME280;25173;50.430;18.926;2023-03-13T07:31:10;97633.72;;;11.62;57.93
39487;BME280;25173;50.430;18.926;2023-03-13T07:34:11;97609.91;;;11.68;57.87
39487;BME280;25173;50.430;18.926;2023-03-13T07:37:13;97610.13;;;11.72;57.68
39487;BME280;25173;50.430;18.926;2023-03-13T07:40:14;97611.41;;;11.79;57.55
39487;BME280;25173;50.430;18.926;2023-03-13T07:43:15;97608.09;;;11.82;57.57
39487;BME280;25173;50.430;18.926;2023-03-13T07:46:17;97600.44;;;11.84;57.62
39487;BME280;25173;50.430;18.926;2023-03-13T07:49:19;97608.78;;;11.93;57.49
39487;BME280;25173;50.430;18.926;2023-03-13T07:52:19;97608.59;;;12.03;57.60
39487;BME280;25173;50.430;18.926;2023-03-13T07:55:20;97610.94;;;12.10;57.28
39487;BME280;25173;50.430;18.926;2023-03-13T07:58:21;97591.44;;;12.16;57.36
39487;BME280;25173;50.430;18.926;2023-03-13T08:01:24;97601.81;;;12.33;57.21
39487;BME280;25173;50.430;18.926;2023-03-13T08:04:25;97595.38;;;12.42;56.95
39487;BME280;25173;50.430;18.926;2023-03-13T08:07:26;97600.06;;;12.56;57.09
39487;BME280;25173;50.430;18.926;2023-03-13T08:10:26;97604.31;;;12.62;56.71
39487;BME280;25173;50.430;18.926;2023-03-13T08:13:27;97585.91;;;12.67;56.58
39487;BME280;25173;50.430;18.926;2023-03-13T08:16:31;97606.59;;;12.73;56.62
39487;BME280;25173;50.430;18.926;2023-03-13T08:19:33;97587.34;;;12.78;56.70
39487;BME280;25173;50.430;18.926;2023-03-13T08:22:34;97587.97;;;12.89;56.52
39487;BME280;25173;50.430;18.926;2023-03-13T08:25:36;97585.31;;;12.98;56.31
39487;BME280;25173;50.430;18.926;2023-03-13T08:28:37;97575.53;;;13.10;56.04
39487;BME280;25173;50.430;18.926;2023-03-13T08:31:46;97564.91;;;13.23;55.93
39487;BME280;25173;50.430;18.926;2023-03-13T08:34:47;97573.19;;;13.31;55.67
39487;BME280;25173;50.430;18.926;2023-03-13T08:37:48;97561.63;;;13.34;55.13
39487;BME280;25173;50.430;18.926;2023-03-13T08:40:48;97576.91;;;13.49;55.56
39487;BME280;25173;50.430;18.926;2023-03-13T08:43:51;97575.38;;;13.56;55.33
39487;BME280;25173;50.430;18.926;2023-03-13T08:46:52;97567.25;;;13.65;55.21
39487;BME280;25173;50.430;18.926;2023-03-13T08:49:53;97557.88;;;13.80;54.86
39487;BME280;25173;50.430;18.926;2023-03-13T08:52:54;97564.31;;;13.97;54.76
39487;BME280;25173;50.430;18.926;2023-03-13T08:55:55;97565.78;;;14.04;54.05
39487;BME280;25173;50.430;18.926;2023-03-13T08:58:57;97562.63;;;14.10;54.12
39487;BME280;25173;50.430;18.926;2023-03-13T09:01:59;97559.94;;;14.19;53.89
39487;BME280;25173;50.430;18.926;2023-03-13T09:04:59;97552.16;;;14.12;53.55
39487;BME280;25173;50.430;18.926;2023-03-13T09:08:00;97572.69;;;14.23;53.63
39487;BME280;25173;50.430;18.926;2023-03-13T09:11:06;97549.03;;;14.27;53.46
39487;BME280;25173;50.430;18.926;2023-03-13T09:14:11;97545.81;;;14.25;53.11
39487;BME280;25173;50.430;18.926;2023-03-13T09:17:12;97532.75;;;14.22;53.33
39487;BME280;25173;50.430;18.926;2023-03-13T09:20:12;97540.16;;;14.22;52.97
39487;BME280;25173;50.430;18.926;2023-03-13T09:23:13;97535.44;;;14.14;53.21
39487;BME280;25173;50.430;18.926;2023-03-13T09:26:14;97525.16;;;14.19;53.22
39487;BME280;25173;50.430;18.926;2023-03-13T09:29:15;97520.19;;;14.21;52.97
39487;BME280;25173;50.430;18.926;2023-03-13T09:32:16;97527.75;;;14.24;52.68
39487;BME280;25173;50.430;18.926;2023-03-13T09:35:19;97556.44;;;14.27;52.48
39487;BME280;25173;50.430;18.926;2023-03-13T09:38:20;97529.94;;;14.36;52.90
39487;BME280;25173;50.430;18.926;2023-03-13T09:41:23;97539.75;;;14.59;52.86
39487;BME280;25173;50.430;18.926;2023-03-13T09:44:28;97559.97;;;14.72;51.72
39487;BME280;25173;50.430;18.926;2023-03-13T09:47:47;97511.94;;;14.74;49.84
39487;BME280;25173;50.430;18.926;2023-03-13T09:54:27;97531.94;;;14.84;50.82
39487;BME280;25173;50.430;18.926;2023-03-13T09:57:53;97515.78;;;14.82;50.14
39487;BME280;25173;50.430;18.926;2023-03-13T10:01:03;97523.41;;;14.85;50.38
39487;BME280;25173;50.430;18.926;2023-03-13T10:07:17;97512.19;;;15.04;51.36
39487;BME280;25173;50.430;18.926;2023-03-13T10:10:33;97488.16;;;15.09;50.42
39487;BME280;25173;50.430;18.926;2023-03-13T10:13:57;97474.28;;;15.23;50.63
39487;BME280;25173;50.430;18.926;2023-03-13T10:17:25;97466.72;;;15.46;49.46
39487;BME280;25173;50.430;18.926;2023-03-13T10:20:34;97476.28;;;15.66;49.39
39487;BME280;25173;50.430;18.926;2023-03-13T10:23:55;97477.72;;;15.72;47.81
39487;BME280;25173;50.430;18.926;2023-03-13T10:26:57;97472.88;;;15.77;49.20
39487;BME280;25173;50.430;18.926;2023-03-13T10:29:57;97448.69;;;15.71;48.79
39487;BME280;25173;50.430;18.926;2023-03-13T10:33:19;97467.72;;;15.84;47.92
39487;BME280;25173;50.430;18.926;2023-03-13T10:36:21;97465.56;;;16.07;49.14
39487;BME280;25173;50.430;18.926;2023-03-13T10:39:26;97451.25;;;16.31;48.54
39487;BME280;25173;50.430;18.926;2023-03-13T10:42:30;97455.13;;;16.39;47.78
39487;BME280;25173;50.430;18.926;2023-03-13T10:45:34;97422.97;;;16.30;45.41
39487;BME280;25173;50.430;18.926;2023-03-13T10:48:36;97446.72;;;16.35;47.85
39487;BME280;25173;50.430;18.926;2023-03-13T10:51:38;97424.84;;;16.47;47.23
39487;BME280;25173;50.430;18.926;2023-03-13T10:54:39;97444.88;;;16.56;47.25
39487;BME280;25173;50.430;18.926;2023-03-13T10:57:41;97429.00;;;16.62;47.15
39487;BME280;25173;50.430;18.926;2023-03-13T11:00:43;97447.38;;;16.79;47.48
39487;BME280;25173;50.430;18.926;2023-03-13T11:03:45;97403.00;;;16.89;47.06
39487;BME280;25173;50.430;18.926;2023-03-13T11:06:50;97400.31;;;17.01;46.35
39487;BME280;25173;50.430;18.926;2023-03-13T11:12:58;97390.97;;;16.93;46.72
39487;BME280;25173;50.430;18.926;2023-03-13T11:16:08;97404.19;;;16.79;45.87
39487;BME280;25173;50.430;18.926;2023-03-13T11:19:46;97383.72;;;16.59;45.37
39487;BME280;25173;50.430;18.926;2023-03-13T11:26:33;97362.88;;;16.58;45.73
39487;BME280;25173;50.430;18.926;2023-03-13T11:29:55;97361.91;;;16.63;45.55
39487;BME280;25173;50.430;18.926;2023-03-13T11:33:03;97362.97;;;16.71;46.03
39487;BME280;25173;50.430;18.926;2023-03-13T11:36:17;97353.22;;;16.82;46.20
39487;BME280;25173;50.430;18.926;2023-03-13T11:42:53;97355.63;;;17.25;45.12
39487;BME280;25173;50.430;18.926;2023-03-13T11:46:20;97339.56;;;17.48;43.80
39487;BME280;25173;50.430;18.926;2023-03-13T11:52:51;97344.22;;;17.14;44.30
39487;BME280;25173;50.430;18.926;2023-03-13T11:59:08;97353.34;;;16.85;44.26
39487;BME280;25173;50.430;18.926;2023-03-13T12:02:27;97327.50;;;16.78;45.28
39487;BME280;25173;50.430;18.926;2023-03-13T12:05:45;97314.72;;;16.82;45.62
39487;BME280;25173;50.430;18.926;2023-03-13T12:08:52;97321.47;;;16.84;45.69
39487;BME280;25173;50.430;18.926;2023-03-13T12:12:00;97313.56;;;16.83;45.20
39487;BME280;25173;50.430;18.926;2023-03-13T12:18:19;97321.75;;;16.71;45.11
39487;BME280;25173;50.430;18.926;2023-03-13T12:21:49;97329.50;;;16.68;45.36
39487;BME280;25173;50.430;18.926;2023-03-13T12:25:12;97332.47;;;16.55;44.51
39487;BME280;25173;50.430;18.926;2023-03-13T12:28:28;97332.50;;;16.25;45.60
39487;BME280;25173;50.430;18.926;2023-03-13T12:31:38;97334.88;;;15.98;46.48
39487;BME280;25173;50.430;18.926;2023-03-13T12:35:28;97311.44;;;15.62;47.41
39487;BME280;25173;50.430;18.926;2023-03-13T12:38:18;97313.88;;;15.21;48.66
39487;BME280;25173;50.430;18.926;2023-03-13T12:41:27;97310.69;;;14.93;49.35
39487;BME280;25173;50.430;18.926;2023-03-13T12:44:30;97307.47;;;14.65;50.12
39487;BME280;25173;50.430;18.926;2023-03-13T12:47:50;97305.81;;;14.38;51.11
39487;BME280;25173;50.430;18.926;2023-03-13T12:54:52;97300.72;;;14.06;52.07
39487;BME280;25173;50.430;18.926;2023-03-13T12:58:23;97304.53;;;13.96;52.76
39487;BME280;25173;50.430;18.926;2023-03-13T13:01:39;97294.25;;;13.93;52.47
39487;BME280;25173;50.430;18.926;2023-03-13T13:04:45;97285.22;;;13.92;52.03
39487;BME280;25173;50.430;18.926;2023-03-13T13:07:54;97295.47;;;13.87;52.45
39487;BME280;25173;50.430;18.926;2023-03-13T13:11:34;97262.00;;;13.90;52.45
39487;BME280;25173;50.430;18.926;2023-03-13T13:17:59;97300.69;;;13.97;52.82
39487;BME280;25173;50.430;18.926;2023-03-13T13:24:56;97265.09;;;13.97;51.09
39487;BME280;25173;50.430;18.926;2023-03-13T13:27:49;97259.31;;;13.98;50.56
39487;BME280;25173;50.430;18.926;2023-03-13T13:30:52;97255.44;;;13.99;50.20
39487;BME280;25173;50.430;18.926;2023-03-13T13:33:53;97258.50;;;13.98;50.08
39487;BME280;25173;50.430;18.926;2023-03-13T13:43:20;97262.06;;;14.07;49.98
39487;BME280;25173;50.430;18.926;2023-03-13T13:46:24;97259.34;;;14.07;49.51
39487;BME280;25173;50.430;18.926;2023-03-13T13:49:31;97258.84;;;14.05;49.55
39487;BME280;25173;50.430;18.926;2023-03-13T13:52:36;97241.75;;;14.08;49.71
39487;BME280;25173;50.430;18.926;2023-03-13T13:55:43;97250.47;;;14.10;49.65
39487;BME280;25173;50.430;18.926;2023-03-13T13:58:44;97233.41;;;14.13;49.76
39487;BME280;25173;50.430;18.926;2023-03-13T14:01:47;97252.59;;;14.22;49.57
39487;BME280;25173;50.430;18.926;2023-03-13T14:04:54;97236.97;;;14.22;49.35
39487;BME280;25173;50.430;18.926;2023-03-13T14:08:21;97237.09;;;14.17;49.21
39487;BME280;25173;50.430;18.926;2023-03-13T14:11:27;97258.38;;;14.12;49.17
39487;BME280;25173;50.430;18.926;2023-03-13T14:14:30;97248.72;;;14.14;49.28
39487;BME280;25173;50.430;18.926;2023-03-13T14:17:37;97249.69;;;14.18;49.16
39487;BME280;25173;50.430;18.926;2023-03-13T14:21:02;97259.50;;;14.19;49.03
39487;BME280;25173;50.430;18.926;2023-03-13T14:24:12;97243.88;;;14.20;49.56
39487;BME280;25173;50.430;18.926;2023-03-13T14:27:18;97235.81;;;14.23;49.59
39487;BME280;25173;50.430;18.926;2023-03-13T14:30:20;97235.34;;;14.21;49.85
39487;BME280;25173;50.430;18.926;2023-03-13T14:33:22;97222.13;;;14.23;50.03
39487;BME280;25173;50.430;18.926;2023-03-13T14:36:44;97226.34;;;14.21;50.27
39487;BME280;25173;50.430;18.926;2023-03-13T14:40:08;97228.88;;;14.17;50.38
39487;BME280;25173;50.430;18.926;2023-03-13T14:43:39;97232.41;;;14.09;50.32
39487;BME280;25173;50.430;18.926;2023-03-13T14:47:05;97219.38;;;14.06;50.83
39487;BME280;25173;50.430;18.926;2023-03-13T14:50:14;97227.09;;;14.04;50.82
39487;BME280;25173;50.430;18.926;2023-03-13T14:53:26;97238.06;;;14.04;50.61
39487;BME280;25173;50.430;18.926;2023-03-13T14:57:03;97237.88;;;14.00;50.60
39487;BME280;25173;50.430;18.926;2023-03-13T15:00:37;97227.09;;;14.04;50.45
39487;BME280;25173;50.430;18.926;2023-03-13T15:03:43;97217.59;;;14.10;50.42
39487;BME280;25173;50.430;18.926;2023-03-13T15:06:45;97213.13;;;14.14;50.23
39487;BME280;25173;50.430;18.926;2023-03-13T15:09:47;97203.75;;;14.24;50.04
39487;BME280;25173;50.430;18.926;2023-03-13T15:12:49;97199.28;;;14.28;49.95
39487;BME280;25173;50.430;18.926;2023-03-13T15:15:51;97211.50;;;14.30;49.93
39487;BME280;25173;50.430;18.926;2023-03-13T15:18:53;97196.84;;;14.35;50.00
39487;BME280;25173;50.430;18.926;2023-03-13T15:21:54;97192.19;;;14.35;49.77
39487;BME280;25173;50.430;18.926;2023-03-13T15:24:56;97186.72;;;14.35;49.89
39487;BME280;25173;50.430;18.926;2023-03-13T15:27:56;97190.09;;;14.32;49.83
39487;BME280;25173;50.430;18.926;2023-03-13T15:30:59;97194.28;;;14.30;49.87
39487;BME280;25173;50.430;18.926;2023-03-13T15:34:00;97190.25;;;14.27;49.97
39487;BME280;25173;50.430;18.926;2023-03-13T15:37:01;97175.13;;;14.21;50.06
39487;BME280;25173;50.430;18.926;2023-03-13T15:40:04;97193.47;;;14.21;50.17
39487;BME280;25173;50.430;18.926;2023-03-13T15:43:07;97187.50;;;14.19;50.24
39487;BME280;25173;50.430;18.926;2023-03-13T15:46:17;97190.56;;;14.17;50.38
39487;BME280;25173;50.430;18.926;2023-03-13T15:49:18;97190.56;;;14.17;50.24
39487;BME280;25173;50.430;18.926;2023-03-13T15:52:20;97185.56;;;14.19;50.26
39487;BME280;25173;50.430;18.926;2023-03-13T16:39:18;97157.00;;;13.69;52.50
39487;BME280;25173;50.430;18.926;2023-03-13T16:42:18;97154.09;;;13.74;52.20
39487;BME280;25173;50.430;18.926;2023-03-13T16:45:20;97157.66;;;13.74;52.25
39487;BME280;25173;50.430;18.926;2023-03-13T16:48:21;97167.13;;;13.68;52.18
39487;BME280;25173;50.430;18.926;2023-03-13T16:51:24;97162.47;;;13.69;52.37
39487;BME280;25173;50.430;18.926;2023-03-13T16:54:25;97158.63;;;13.70;52.25
39487;BME280;25173;50.430;18.926;2023-03-13T16:57:26;97168.25;;;13.67;52.21
39487;BME280;25173;50.430;18.926;2023-03-13T17:00:29;97167.28;;;13.72;52.27
39487;BME280;25173;50.430;18.926;2023-03-13T17:03:29;97165.88;;;13.74;52.10
39487;BME280;25173;50.430;18.926;2023-03-13T17:06:36;97168.91;;;13.73;51.98
39487;BME280;25173;50.430;18.926;2023-03-13T17:09:37;97165.72;;;13.71;52.07
39487;BME280;25173;50.430;18.926;2023-03-13T17:12:37;97150.53;;;13.65;51.96
39487;BME280;25173;50.430;18.926;2023-03-13T17:15:38;97161.03;;;13.63;52.32
39487;BME280;25173;50.430;18.926;2023-03-13T17:18:38;97168.56;;;13.66;52.30
39487;BME280;25173;50.430;18.926;2023-03-13T17:21:39;97162.47;;;13.69;52.29
39487;BME280;25173;50.430;18.926;2023-03-13T17:24:40;97155.06;;;13.69;52.18
39487;BME280;25173;50.430;18.926;2023-03-13T17:27:41;97156.19;;;13.68;52.16
39487;BME280;25173;50.430;18.926;2023-03-13T17:30:43;97142.03;;;13.66;52.29
39487;BME280;25173;50.430;18.926;2023-03-13T17:33:44;97140.41;;;13.65;52.28
39487;BME280;25173;50.430;18.926;2023-03-13T17:36:44;97135.09;;;13.60;52.39
39487;BME280;25173;50.430;18.926;2023-03-13T17:39:46;97132.19;;;13.56;52.28
39487;BME280;25173;50.430;18.926;2023-03-13T17:42:47;97128.31;;;13.57;52.44
39487;BME280;25173;50.430;18.926;2023-03-13T17:45:48;97120.78;;;13.54;52.44
39487;BME280;25173;50.430;18.926;2023-03-13T17:48:52;97116.41;;;13.53;52.55